sensor_id;sensor_type;location;lat;lon;timestamp;pressure;altitude;pressure_sealevel;temperature;humidity
69411;BME280;56604;48.652;9.194;2023-12-20T00:01:14;96217.41;;;5.64;96.83
69411;BME280;56604;48.652;9.194;2023-12-20T00:03:39;96197.78;;;5.62;97.37
69411;BME280;56604;48.652;9.194;2023-12-20T00:06:05;96203.69;;;5.69;96.89
69411;BME280;56604;48.652;9.194;2023-12-20T00:08:30;96200.53;;;5.67;96.54
69411;BME280;56604;48.652;9.194;2023-12-20T00:10:55;96200.53;;;5.67;96.51
69411;BME280;56604;48.652;9.194;2023-12-20T00:13:21;96200.09;;;5.70;96.32
69411;BME280;56604;48.652;9.194;2023-12-20T00:15:46;96196.03;;;5.74;95.58
69411;BME280;56604;48.652;9.194;2023-12-20T00:18:11;96198.78;;;5.79;95.66
69411;BME280;56604;48.652;9.194;2023-12-20T00:20:37;96187.63;;;5.72;95.68
69411;BME280;56604;48.652;9.194;2023-12-20T00:23:02;96180.94;;;5.76;95.30
69411;BME280;56604;48.652;9.194;2023-12-20T00:25:28;96173.56;;;5.73;95.40
69411;BME280;56604;48.652;9.194;2023-12-20T00:27:53;96175.94;;;5.75;95.78
69411;BME280;56604;48.652;9.194;2023-12-20T00:30:19;96180.22;;;5.69;96.50
69411;BME280;56604;48.652;9.194;2023-12-20T00:32:44;96172.00;;;5.72;96.14
69411;BME280;56604;48.652;9.194;2023-12-20T00:35:18;96164.94;;;5.73;96.45
69411;BME280;56604;48.652;9.194;2023-12-20T00:37:44;96160.81;;;5.65;96.46
69411;BME280;56604;48.652;9.194;2023-12-20T00:40:10;96164.47;;;5.64;96.93
69411;BME280;56604;48.652;9.194;2023-12-20T00:42:35;96172.00;;;5.72;96.20
69411;BME280;56604;48.652;9.194;2023-12-20T00:45:01;96170.03;;;5.68;96.30
69411;BME280;56604;48.652;9.194;2023-12-20T00:47:28;96161.19;;;5.69;96.06
69411;BME280;56604;48.652;9.194;2023-12-20T00:49:53;96165.25;;;5.64;96.13
69411;BME280;56604;48.652;9.194;2023-12-20T00:52:19;96160.38;;;5.68;95.90
69411;BME280;56604;48.652;9.194;2023-12-20T00:54:45;96160.03;;;5.64;96.74
69411;BME280;56604;48.652;9.194;2023-12-20T00:57:11;96152.06;;;5.59;97.47
69411;BME280;56604;48.652;9.194;2023-12-20T00:59:36;96151.88;;;5.61;97.18
69411;BME280;56604;48.652;9.194;2023-12-20T01:02:03;96151.88;;;5.61;96.86
69411;BME280;56604;48.652;9.194;2023-12-20T01:04:28;96150.84;;;5.62;96.61
69411;BME280;56604;48.652;9.194;2023-12-20T01:06:54;96159.25;;;5.64;97.08
69411;BME280;56604;48.652;9.194;2023-12-20T01:09:19;96161.91;;;5.57;98.01
69411;BME280;56604;48.652;9.194;2023-12-20T01:11:45;96170.19;;;5.54;99.09
69411;BME280;56604;48.652;9.194;2023-12-20T01:14:13;96174.88;;;5.46;100.00
69411;BME280;56604;48.652;9.194;2023-12-20T01:16:38;96171.50;;;5.45;100.00
69411;BME280;56604;48.652;9.194;2023-12-20T01:19:03;96172.38;;;5.39;100.00
69411;BME280;56604;48.652;9.194;2023-12-20T01:21:29;96167.16;;;5.39;100.00
69411;BME280;56604;48.652;9.194;2023-12-20T01:23:54;96171.56;;;5.38;100.00
69411;BME280;56604;48.652;9.194;2023-12-20T01:26:19;96166.84;;;5.29;100.00
69411;BME280;56604;48.652;9.194;2023-12-20T01:28:45;96168.94;;;5.20;100.00
69411;BME280;56604;48.652;9.194;2023-12-20T01:31:10;96173.72;;;5.23;100.00
69411;BME280;56604;48.652;9.194;2023-12-20T01:33:35;96178.94;;;5.23;100.00
69411;BME280;56604;48.652;9.194;2023-12-20T01:36:01;96179.00;;;5.16;100.00
69411;BME280;56604;48.652;9.194;2023-12-20T01:38:26;96177.56;;;5.21;100.00
69411;BME280;56604;48.652;9.194;2023-12-20T01:40:51;96181.97;;;5.20;100.00
69411;BME280;56604;48.652;9.194;2023-12-20T01:43:16;96175.53;;;5.23;100.00
69411;BME280;56604;48.652;9.194;2023-12-20T01:45:42;96176.19;;;5.18;100.00
69411;BME280;56604;48.652;9.194;2023-12-20T01:48:08;96181.81;;;5.15;100.00
69411;BME280;56604;48.652;9.194;2023-12-20T01:50:36;96180.88;;;5.09;100.00
69411;BME280;56604;48.652;9.194;2023-12-20T01:53:02;96180.50;;;5.06;100.00
69411;BME280;56604;48.652;9.194;2023-12-20T01:55:31;96185.13;;;5.04;100.00
69411;BME280;56604;48.652;9.194;2023-12-20T01:57:57;96186.44;;;4.94;100.00
69411;BME280;56604;48.652;9.194;2023-12-20T02:00:23;96185.53;;;5.07;100.00
69411;BME280;56604;48.652;9.194;2023-12-20T02:02:53;96167.91;;;5.03;100.00
69411;BME280;56604;48.652;9.194;2023-12-20T02:05:18;96177.19;;;4.99;100.00
69411;BME280;56604;48.652;9.194;2023-12-20T02:07:44;96165.31;;;5.03;100.00
69411;BME280;56604;48.652;9.194;2023-12-20T02:10:09;96153.31;;;5.02;100.00
69411;BME280;56604;48.652;9.194;2023-12-20T02:12:35;96155.41;;;4.93;100.00
69411;BME280;56604;48.652;9.194;2023-12-20T02:15:01;96166.78;;;4.99;100.00
69411;BME280;56604;48.652;9.194;2023-12-20T02:17:27;96168.78;;;4.96;100.00
69411;BME280;56604;48.652;9.194;2023-12-20T02:19:53;96161.75;;;4.97;100.00
69411;BME280;56604;48.652;9.194;2023-12-20T02:22:18;96159.81;;;4.92;100.00
69411;BME280;56604;48.652;9.194;2023-12-20T02:24:43;96164.78;;;4.94;100.00
69411;BME280;56604;48.652;9.194;2023-12-20T02:27:09;96160.38;;;4.94;100.00
69411;BME280;56604;48.652;9.194;2023-12-20T02:29:35;96162.41;;;4.92;100.00
69411;BME280;56604;48.652;9.194;2023-12-20T02:32:00;96162.03;;;4.89;100.00
69411;BME280;56604;48.652;9.194;2023-12-20T02:34:26;96162.81;;;4.89;100.00
69411;BME280;56604;48.652;9.194;2023-12-20T02:36:51;96160.81;;;4.91;100.00
69411;BME280;56604;48.652;9.194;2023-12-20T02:39:18;96159.66;;;4.87;100.00
69411;BME280;56604;48.652;9.194;2023-12-20T02:41:44;96158.00;;;4.93;100.00
69411;BME280;56604;48.652;9.194;2023-12-20T02:44:09;96169.66;;;4.90;100.00
69411;BME280;56604;48.652;9.194;2023-12-20T02:46:35;96170.22;;;4.92;100.00
69411;BME280;56604;48.652;9.194;2023-12-20T02:49:00;96163.22;;;4.93;100.00
69411;BME280;56604;48.652;9.194;2023-12-20T02:51:25;96161.84;;;4.90;100.00
69411;BME280;56604;48.652;9.194;2023-12-20T02:53:51;96172.59;;;4.94;100.00
69411;BME280;56604;48.652;9.194;2023-12-20T02:56:16;96164.44;;;4.90;100.00
69411;BME280;56604;48.652;9.194;2023-12-20T02:58:41;96167.63;;;4.92;100.00
69411;BME280;56604;48.652;9.194;2023-12-20T03:01:07;96172.03;;;4.92;100.00
69411;BME280;56604;48.652;9.194;2023-12-20T03:03:32;96180.22;;;4.95;100.00
69411;BME280;56604;48.652;9.194;2023-12-20T03:05:58;96170.06;;;4.87;100.00
69411;BME280;56604;48.652;9.194;2023-12-20T03:08:23;96172.25;;;4.90;100.00
69411;BME280;56604;48.652;9.194;2023-12-20T03:10:49;96180.66;;;4.92;100.00
69411;BME280;56604;48.652;9.194;2023-12-20T03:13:14;96182.44;;;4.92;100.00
69411;BME280;56604;48.652;9.194;2023-12-20T03:15:40;96173.19;;;4.96;100.00
69411;BME280;56604;48.652;9.194;2023-12-20T03:18:05;96184.06;;;4.93;100.00
69411;BME280;56604;48.652;9.194;2023-12-20T03:20:31;96182.00;;;4.95;100.00
69411;BME280;56604;48.652;9.194;2023-12-20T03:22:59;96188.88;;;4.89;100.00
69411;BME280;56604;48.652;9.194;2023-12-20T03:25:25;96181.66;;;4.91;100.00
69411;BME280;56604;48.652;9.194;2023-12-20T03:27:50;96178.31;;;4.84;100.00
69411;BME280;56604;48.652;9.194;2023-12-20T03:30:16;96177.47;;;4.90;100.00
69411;BME280;56604;48.652;9.194;2023-12-20T03:32:41;96185.47;;;4.89;100.00
69411;BME280;56604;48.652;9.194;2023-12-20T03:35:06;96188.06;;;4.89;100.00
69411;BME280;56604;48.652;9.194;2023-12-20T03:37:32;96189.69;;;4.90;100.00
69411;BME280;56604;48.652;9.194;2023-12-20T03:39:57;96180.50;;;4.87;100.00
69411;BME280;56604;48.652;9.194;2023-12-20T03:42:23;96185.72;;;4.87;100.00
69411;BME280;56604;48.652;9.194;2023-12-20T03:44:48;96199.59;;;4.81;100.00
69411;BME280;56604;48.652;9.194;2023-12-20T03:47:13;96194.38;;;4.81;100.00
69411;BME280;56604;48.652;9.194;2023-12-20T03:49:38;96195.19;;;4.75;100.00
69411;BME280;56604;48.652;9.194;2023-12-20T03:52:04;96201.00;;;4.77;100.00
69411;BME280;56604;48.652;9.194;2023-12-20T03:54:30;96204.19;;;4.79;100.00
69411;BME280;56604;48.652;9.194;2023-12-20T03:56:55;96210.25;;;4.73;100.00
69411;BME280;56604;48.652;9.194;2023-12-20T03:59:20;96199.25;;;4.71;100.00
69411;BME280;56604;48.652;9.194;2023-12-20T04:01:46;96194.63;;;4.73;100.00
69411;BME280;56604;48.652;9.194;2023-12-20T04:04:11;96197.97;;;4.80;100.00
69411;BME280;56604;48.652;9.194;2023-12-20T04:06:37;96199.84;;;4.73;100.00
69411;BME280;56604;48.652;9.194;2023-12-20T04:09:03;96205.06;;;4.73;100.00
69411;BME280;56604;48.652;9.194;2023-12-20T04:11:28;96219.88;;;4.72;100.00
69411;BME280;56604;48.652;9.194;2023-12-20T04:13:53;96217.06;;;4.74;100.00
69411;BME280;56604;48.652;9.194;2023-12-20T04:16:19;96202.88;;;4.70;100.00
69411;BME280;56604;48.652;9.194;2023-12-20T04:18:44;96204.09;;;4.67;100.00
69411;BME280;56604;48.652;9.194;2023-12-20T04:21:09;96193.88;;;4.66;100.00
69411;BME280;56604;48.652;9.194;2023-12-20T04:23:35;96206.31;;;4.64;100.00
69411;BME280;56604;48.652;9.194;2023-12-20T04:26:00;96202.34;;;4.61;100.00
69411;BME280;56604;48.652;9.194;2023-12-20T04:28:25;96206.72;;;4.61;100.00
69411;BME280;56604;48.652;9.194;2023-12-20T04:30:50;96210.97;;;4.55;100.00
69411;BME280;56604;48.652;9.194;2023-12-20T04:33:16;96216.72;;;4.64;100.00
69411;BME280;56604;48.652;9.194;2023-12-20T04:35:41;96218.34;;;4.65;100.00
69411;BME280;56604;48.652;9.194;2023-12-20T04:38:08;96217.53;;;4.64;100.00
69411;BME280;56604;48.652;9.194;2023-12-20T04:40:33;96215.56;;;4.60;100.00
69411;BME280;56604;48.652;9.194;2023-12-20T04:42:59;96221.19;;;4.57;100.00
69411;BME280;56604;48.652;9.194;2023-12-20T04:45:24;96224.38;;;4.59;100.00
69411;BME280;56604;48.652;9.194;2023-12-20T04:47:50;96222.22;;;4.56;100.00
69411;BME280;56604;48.652;9.194;2023-12-20T04:50:15;96227.56;;;4.61;100.00
69411;BME280;56604;48.652;9.194;2023-12-20T04:52:41;96242.88;;;4.50;100.00
69411;BME280;56604;48.652;9.194;2023-12-20T04:55:06;96252.84;;;4.54;100.00
69411;BME280;56604;48.652;9.194;2023-12-20T04:57:32;96256.47;;;4.53;100.00
69411;BME280;56604;48.652;9.194;2023-12-20T04:59:57;96245.63;;;4.56;100.00
69411;BME280;56604;48.652;9.194;2023-12-20T05:02:22;96240.44;;;4.56;100.00
69411;BME280;56604;48.652;9.194;2023-12-20T05:04:48;96235.66;;;4.53;100.00
69411;BME280;56604;48.652;9.194;2023-12-20T05:07:13;96251.28;;;4.53;100.00
69411;BME280;56604;48.652;9.194;2023-12-20T05:09:39;96243.81;;;4.56;100.00
69411;BME280;56604;48.652;9.194;2023-12-20T05:12:04;96242.81;;;4.57;100.00
69411;BME280;56604;48.652;9.194;2023-12-20T05:14:30;96254.44;;;4.55;100.00
69411;BME280;56604;48.652;9.194;2023-12-20T05:16:55;96258.25;;;4.52;100.00
69411;BME280;56604;48.652;9.194;2023-12-20T05:19:21;96251.09;;;4.47;100.00
69411;BME280;56604;48.652;9.194;2023-12-20T05:21:47;96249.66;;;4.51;100.00
69411;BME280;56604;48.652;9.194;2023-12-20T05:24:12;96258.91;;;4.47;100.00
69411;BME280;56604;48.652;9.194;2023-12-20T05:26:37;96267.13;;;4.44;100.00
69411;BME280;56604;48.652;9.194;2023-12-20T05:29:02;96281.56;;;4.40;100.00
69411;BME280;56604;48.652;9.194;2023-12-20T05:31:28;96276.94;;;4.42;100.00
69411;BME280;56604;48.652;9.194;2023-12-20T05:33:53;96274.53;;;4.47;100.00
69411;BME280;56604;48.652;9.194;2023-12-20T05:36:19;96275.34;;;4.41;100.00
69411;BME280;56604;48.652;9.194;2023-12-20T05:38:44;96280.16;;;4.44;100.00
69411;BME280;56604;48.652;9.194;2023-12-20T05:41:09;96278.34;;;4.45;100.00
69411;BME280;56604;48.652;9.194;2023-12-20T05:43:34;96289.34;;;4.40;100.00
69411;BME280;56604;48.652;9.194;2023-12-20T05:46:00;96286.56;;;4.35;100.00
69411;BME280;56604;48.652;9.194;2023-12-20T05:48:25;96292.19;;;4.39;100.00
69411;BME280;56604;48.652;9.194;2023-12-20T05:50:50;96288.97;;;4.37;100.00
69411;BME280;56604;48.652;9.194;2023-12-20T05:53:15;96296.78;;;4.37;100.00
69411;BME280;56604;48.652;9.194;2023-12-20T05:55:41;96295.78;;;4.38;100.00
69411;BME280;56604;48.652;9.194;2023-12-20T05:58:06;96308.00;;;4.37;100.00
69411;BME280;56604;48.652;9.194;2023-12-20T06:00:31;96312.59;;;4.35;100.00
69411;BME280;56604;48.652;9.194;2023-12-20T06:02:56;96312.59;;;4.35;100.00
69411;BME280;56604;48.652;9.194;2023-12-20T06:05:22;96310.59;;;4.37;100.00
69411;BME280;56604;48.652;9.194;2023-12-20T06:07:47;96323.44;;;4.32;100.00
69411;BME280;56604;48.652;9.194;2023-12-20T06:10:13;96318.63;;;4.29;100.00
69411;BME280;56604;48.652;9.194;2023-12-20T06:12:39;96329.03;;;4.29;100.00
69411;BME280;56604;48.652;9.194;2023-12-20T06:15:04;96334.84;;;4.31;100.00
69411;BME280;56604;48.652;9.194;2023-12-20T06:17:31;96327.47;;;4.28;100.00
69411;BME280;56604;48.652;9.194;2023-12-20T06:19:56;96327.84;;;4.32;100.00
69411;BME280;56604;48.652;9.194;2023-12-20T06:22:22;96326.63;;;4.34;100.00
69411;BME280;56604;48.652;9.194;2023-12-20T06:24:47;96334.25;;;4.29;100.00
69411;BME280;56604;48.652;9.194;2023-12-20T06:27:12;96335.25;;;4.28;100.00
69411;BME280;56604;48.652;9.194;2023-12-20T06:29:38;96328.63;;;4.32;100.00
69411;BME280;56604;48.652;9.194;2023-12-20T06:32:03;96345.25;;;4.31;100.00
69411;BME280;56604;48.652;9.194;2023-12-20T06:34:29;96342.06;;;4.29;100.00
69411;BME280;56604;48.652;9.194;2023-12-20T06:36:54;96337.59;;;4.43;100.00
69411;BME280;56604;48.652;9.194;2023-12-20T06:39:19;96325.81;;;5.04;100.00
69411;BME280;56604;48.652;9.194;2023-12-20T06:41:45;96323.22;;;4.72;100.00
69411;BME280;56604;48.652;9.194;2023-12-20T06:44:10;96333.72;;;4.59;100.00
69411;BME280;56604;48.652;9.194;2023-12-20T06:46:35;96341.00;;;4.43;100.00
69411;BME280;56604;48.652;9.194;2023-12-20T06:49:00;96346.66;;;4.34;100.00
69411;BME280;56604;48.652;9.194;2023-12-20T06:51:26;96350.28;;;4.33;100.00
69411;BME280;56604;48.652;9.194;2023-12-20T06:53:54;96359.44;;;4.35;100.00
69411;BME280;56604;48.652;9.194;2023-12-20T06:56:19;96361.47;;;4.33;100.00
69411;BME280;56604;48.652;9.194;2023-12-20T06:58:45;96358.31;;;4.18;100.00
69411;BME280;56604;48.652;9.194;2023-12-20T07:01:14;96367.50;;;4.27;100.00
69411;BME280;56604;48.652;9.194;2023-12-20T07:03:39;96372.72;;;4.27;100.00
69411;BME280;56604;48.652;9.194;2023-12-20T07:06:08;96370.50;;;4.24;100.00
69411;BME280;56604;48.652;9.194;2023-12-20T07:08:33;96370.69;;;4.36;100.00
69411;BME280;56604;48.652;9.194;2023-12-20T07:10:59;96375.06;;;4.35;100.00
69411;BME280;56604;48.652;9.194;2023-12-20T07:13:24;96378.66;;;4.34;100.00
69411;BME280;56604;48.652;9.194;2023-12-20T07:15:49;96377.91;;;4.27;100.00
69411;BME280;56604;48.652;9.194;2023-12-20T07:18:15;96383.13;;;4.27;100.00
69411;BME280;56604;48.652;9.194;2023-12-20T07:20:40;96383.47;;;4.37;100.00
69411;BME280;56604;48.652;9.194;2023-12-20T07:23:05;96385.88;;;4.32;100.00
69411;BME280;56604;48.652;9.194;2023-12-20T07:25:31;96393.91;;;4.31;100.00
69411;BME280;56604;48.652;9.194;2023-12-20T07:27:59;96397.31;;;4.31;100.00
69411;BME280;56604;48.652;9.194;2023-12-20T07:30:24;96398.47;;;4.35;100.00
69411;BME280;56604;48.652;9.194;2023-12-20T07:32:49;96409.06;;;4.40;100.00
69411;BME280;56604;48.652;9.194;2023-12-20T07:35:15;96413.09;;;4.36;100.00
69411;BME280;56604;48.652;9.194;2023-12-20T07:37:41;96418.31;;;4.36;100.00
69411;BME280;56604;48.652;9.194;2023-12-20T07:40:07;96415.13;;;4.27;100.00
69411;BME280;56604;48.652;9.194;2023-12-20T07:42:32;96425.06;;;4.44;100.00
69411;BME280;56604;48.652;9.194;2023-12-20T07:44:58;96425.69;;;4.46;100.00
69411;BME280;56604;48.652;9.194;2023-12-20T07:47:23;96423.06;;;4.53;100.00
69411;BME280;56604;48.652;9.194;2023-12-20T07:49:50;96421.84;;;4.55;100.00
69411;BME280;56604;48.652;9.194;2023-12-20T07:52:19;96433.06;;;4.56;100.00
69411;BME280;56604;48.652;9.194;2023-12-20T07:54:45;96437.25;;;4.57;100.00
69411;BME280;56604;48.652;9.194;2023-12-20T07:57:11;96435.66;;;4.56;100.00
69411;BME280;56604;48.652;9.194;2023-12-20T07:59:37;96433.06;;;4.49;100.00
69411;BME280;56604;48.652;9.194;2023-12-20T08:02:02;96432.47;;;4.54;100.00
69411;BME280;56604;48.652;9.194;2023-12-20T08:04:28;96440.69;;;4.50;100.00
69411;BME280;56604;48.652;9.194;2023-12-20T08:06:53;96442.28;;;4.51;100.00
69411;BME280;56604;48.652;9.194;2023-12-20T08:09:19;96439.03;;;4.63;100.00
69411;BME280;56604;48.652;9.194;2023-12-20T08:11:48;96444.63;;;4.66;100.00
69411;BME280;56604;48.652;9.194;2023-12-20T08:14:14;96442.25;;;4.65;100.00
69411;BME280;56604;48.652;9.194;2023-12-20T08:16:39;96445.69;;;4.52;100.00
69411;BME280;56604;48.652;9.194;2023-12-20T08:19:05;96445.06;;;4.57;100.00
69411;BME280;56604;48.652;9.194;2023-12-20T08:21:30;96448.44;;;4.64;100.00
69411;BME280;56604;48.652;9.194;2023-12-20T08:23:55;96451.88;;;4.64;100.00
69411;BME280;56604;48.652;9.194;2023-12-20T08:26:21;96448.84;;;4.67;100.00
69411;BME280;56604;48.652;9.194;2023-12-20T08:28:50;96456.25;;;4.70;100.00
69411;BME280;56604;48.652;9.194;2023-12-20T08:31:16;96467.44;;;4.71;100.00
69411;BME280;56604;48.652;9.194;2023-12-20T08:33:47;96468.63;;;4.75;100.00
69411;BME280;56604;48.652;9.194;2023-12-20T08:36:13;96457.25;;;4.63;100.00
69411;BME280;56604;48.652;9.194;2023-12-20T08:38:39;96460.25;;;4.66;100.00
69411;BME280;56604;48.652;9.194;2023-12-20T08:41:05;96466.84;;;4.69;100.00
69411;BME280;56604;48.652;9.194;2023-12-20T08:43:31;96465.44;;;4.73;100.00
69411;BME280;56604;48.652;9.194;2023-12-20T08:45:57;96469.03;;;4.72;100.00
69411;BME280;56604;48.652;9.194;2023-12-20T08:48:22;96473.91;;;4.62;100.00
69411;BME280;56604;48.652;9.194;2023-12-20T08:50:48;96480.66;;;4.76;100.00
69411;BME280;56604;48.652;9.194;2023-12-20T08:53:15;96479.84;;;4.82;100.00
69411;BME280;56604;48.652;9.194;2023-12-20T08:55:42;96479.78;;;4.95;100.00
69411;BME280;56604;48.652;9.194;2023-12-20T08:58:07;96487.78;;;4.94;100.00
69411;BME280;56604;48.652;9.194;2023-12-20T09:00:33;96485.66;;;4.84;100.00
69411;BME280;56604;48.652;9.194;2023-12-20T09:02:59;96486.44;;;4.85;100.00
69411;BME280;56604;48.652;9.194;2023-12-20T09:05:25;96490.78;;;4.97;100.00
69411;BME280;56604;48.652;9.194;2023-12-20T09:07:50;96480.03;;;4.87;100.00
69411;BME280;56604;48.652;9.194;2023-12-20T09:10:15;96478.22;;;4.88;100.00
69411;BME280;56604;48.652;9.194;2023-12-20T09:12:41;96477.38;;;4.94;100.00
69411;BME280;56604;48.652;9.194;2023-12-20T09:15:08;96474.16;;;4.99;100.00
69411;BME280;56604;48.652;9.194;2023-12-20T09:17:33;96473.31;;;5.05;100.00
69411;BME280;56604;48.652;9.194;2023-12-20T09:19:59;96485.16;;;5.01;100.00
69411;BME280;56604;48.652;9.194;2023-12-20T09:22:25;96479.47;;;5.17;100.00
69411;BME280;56604;48.652;9.194;2023-12-20T09:24:50;96485.69;;;5.16;100.00
69411;BME280;56604;48.652;9.194;2023-12-20T09:27:16;96482.72;;;5.06;100.00
69411;BME280;56604;48.652;9.194;2023-12-20T09:29:41;96475.13;;;5.04;100.00
69411;BME280;56604;48.652;9.194;2023-12-20T09:32:06;96477.75;;;5.04;100.00
69411;BME280;56604;48.652;9.194;2023-12-20T09:34:32;96491.84;;;4.90;100.00
69411;BME280;56604;48.652;9.194;2023-12-20T09:36:57;96484.75;;;5.04;100.00
69411;BME280;56604;48.652;9.194;2023-12-20T09:39:22;96495.75;;;5.12;99.55
69411;BME280;56604;48.652;9.194;2023-12-20T09:44:27;96488.31;;;5.09;98.49
69411;BME280;56604;48.652;9.194;2023-12-20T09:46:55;96492.75;;;5.47;97.89
69411;BME280;56604;48.652;9.194;2023-12-20T09:49:20;96480.66;;;5.84;97.15
69411;BME280;56604;48.652;9.194;2023-12-20T09:51:46;96486.34;;;6.06;94.42
69411;BME280;56604;48.652;9.194;2023-12-20T09:54:16;96482.41;;;6.41;91.37
69411;BME280;56604;48.652;9.194;2023-12-20T09:56:42;96477.31;;;6.46;91.63
69411;BME280;56604;48.652;9.194;2023-12-20T09:59:07;96488.19;;;6.24;90.21
69411;BME280;56604;48.652;9.194;2023-12-20T10:01:34;96483.59;;;6.63;87.87
69411;BME280;56604;48.652;9.194;2023-12-20T10:04:00;96490.47;;;6.94;87.60
69411;BME280;56604;48.652;9.194;2023-12-20T10:06:26;96480.09;;;6.69;86.53
69411;BME280;56604;48.652;9.194;2023-12-20T10:08:52;96480.31;;;6.68;87.49
69411;BME280;56604;48.652;9.194;2023-12-20T10:11:18;96477.47;;;6.88;84.85
69411;BME280;56604;48.652;9.194;2023-12-20T10:13:47;96476.16;;;6.60;86.71
69411;BME280;56604;48.652;9.194;2023-12-20T10:16:12;96466.00;;;6.89;85.11
69411;BME280;56604;48.652;9.194;2023-12-20T10:18:38;96475.59;;;6.58;84.16
69411;BME280;56604;48.652;9.194;2023-12-20T10:21:04;96488.00;;;6.44;85.79
69411;BME280;56604;48.652;9.194;2023-12-20T10:23:30;96487.66;;;6.78;88.02
69411;BME280;56604;48.652;9.194;2023-12-20T10:25:59;96473.50;;;7.15;84.00
69411;BME280;56604;48.652;9.194;2023-12-20T10:28:25;96472.59;;;6.91;83.43
69411;BME280;56604;48.652;9.194;2023-12-20T10:30:53;96459.47;;;6.80;82.71
69411;BME280;56604;48.652;9.194;2023-12-20T10:33:25;96456.94;;;7.21;78.69
69411;BME280;56604;48.652;9.194;2023-12-20T10:35:52;96450.09;;;7.62;79.19
69411;BME280;56604;48.652;9.194;2023-12-20T10:38:17;96446.84;;;7.37;78.10
69411;BME280;56604;48.652;9.194;2023-12-20T10:40:45;96439.28;;;7.59;77.80
69411;BME280;56604;48.652;9.194;2023-12-20T10:43:11;96438.78;;;7.27;75.40
69411;BME280;56604;48.652;9.194;2023-12-20T10:45:37;96438.41;;;7.23;76.60
69411;BME280;56604;48.652;9.194;2023-12-20T10:48:03;96434.97;;;7.64;76.71
69411;BME280;56604;48.652;9.194;2023-12-20T10:50:29;96438.53;;;7.94;74.88
69411;BME280;56604;48.652;9.194;2023-12-20T10:52:56;96441.03;;;7.77;73.57
69411;BME280;56604;48.652;9.194;2023-12-20T10:55:22;96437.66;;;8.00;72.73
69411;BME280;56604;48.652;9.194;2023-12-20T10:57:52;96433.53;;;8.16;72.71
69411;BME280;56604;48.652;9.194;2023-12-20T11:00:21;96430.78;;;7.63;71.03
69411;BME280;56604;48.652;9.194;2023-12-20T11:02:49;96427.75;;;6.94;72.72
69411;BME280;56604;48.652;9.194;2023-12-20T11:07:58;96449.09;;;6.73;73.50
69411;BME280;56604;48.652;9.194;2023-12-20T11:10:37;96446.44;;;6.91;75.29
69411;BME280;56604;48.652;9.194;2023-12-20T11:13:12;96441.16;;;6.80;74.63
69411;BME280;56604;48.652;9.194;2023-12-20T11:15:40;96443.34;;;6.83;75.52
69411;BME280;56604;48.652;9.194;2023-12-20T11:18:06;96446.88;;;6.58;76.77
69411;BME280;56604;48.652;9.194;2023-12-20T11:20:39;96445.69;;;6.54;77.57
69411;BME280;56604;48.652;9.194;2023-12-20T11:23:05;96448.88;;;6.56;76.88
69411;BME280;56604;48.652;9.194;2023-12-20T11:25:46;96451.50;;;6.38;79.06
69411;BME280;56604;48.652;9.194;2023-12-20T11:28:12;96442.06;;;6.55;77.67
69411;BME280;56604;48.652;9.194;2023-12-20T11:30:48;96444.97;;;6.47;78.31
69411;BME280;56604;48.652;9.194;2023-12-20T11:33:15;96445.25;;;6.39;79.22
69411;BME280;56604;48.652;9.194;2023-12-20T11:35:41;96439.22;;;6.20;79.19
69411;BME280;56604;48.652;9.194;2023-12-20T11:38:08;96435.53;;;6.27;78.52
69411;BME280;56604;48.652;9.194;2023-12-20T11:40:35;96438.28;;;6.33;78.00
69411;BME280;56604;48.652;9.194;2023-12-20T11:43:00;96444.75;;;6.30;78.11
69411;BME280;56604;48.652;9.194;2023-12-20T11:45:26;96442.69;;;6.14;77.11
69411;BME280;56604;48.652;9.194;2023-12-20T11:47:52;96439.00;;;6.21;77.66
69411;BME280;56604;48.652;9.194;2023-12-20T11:50:21;96443.34;;;6.09;78.16
69411;BME280;56604;48.652;9.194;2023-12-20T11:52:48;96439.78;;;6.03;77.65
69411;BME280;56604;48.652;9.194;2023-12-20T11:55:14;96442.16;;;5.80;78.61
69411;BME280;56604;48.652;9.194;2023-12-20T11:57:40;96434.41;;;5.92;77.84
69411;BME280;56604;48.652;9.194;2023-12-20T12:00:06;96440.75;;;5.77;79.51
69411;BME280;56604;48.652;9.194;2023-12-20T12:02:32;96436.63;;;5.95;78.84
69411;BME280;56604;48.652;9.194;2023-12-20T12:04:59;96430.66;;;5.88;78.65
69411;BME280;56604;48.652;9.194;2023-12-20T12:07:24;96432.81;;;5.72;78.62
69411;BME280;56604;48.652;9.194;2023-12-20T12:09:50;96431.97;;;5.72;77.88
69411;BME280;56604;48.652;9.194;2023-12-20T12:12:16;96424.56;;;5.75;78.00
69411;BME280;56604;48.652;9.194;2023-12-20T12:14:42;96420.16;;;5.69;77.70
69411;BME280;56604;48.652;9.194;2023-12-20T12:17:11;96423.31;;;5.53;77.18
69411;BME280;56604;48.652;9.194;2023-12-20T12:19:38;96436.13;;;5.54;77.43
69411;BME280;56604;48.652;9.194;2023-12-20T12:22:14;96435.03;;;5.44;77.50
69411;BME280;56604;48.652;9.194;2023-12-20T12:24:43;96427.19;;;5.44;78.57
69411;BME280;56604;48.652;9.194;2023-12-20T12:27:09;96422.56;;;5.46;79.33
69411;BME280;56604;48.652;9.194;2023-12-20T12:29:35;96418.03;;;5.34;78.60
69411;BME280;56604;48.652;9.194;2023-12-20T12:32:07;96417.03;;;5.35;77.34
69411;BME280;56604;48.652;9.194;2023-12-20T12:34:36;96408.19;;;5.36;77.75
69411;BME280;56604;48.652;9.194;2023-12-20T12:37:03;96406.19;;;5.38;77.04
69411;BME280;56604;48.652;9.194;2023-12-20T12:39:29;96402.13;;;5.43;77.58
69411;BME280;56604;48.652;9.194;2023-12-20T12:41:55;96400.97;;;5.38;77.31
69411;BME280;56604;48.652;9.194;2023-12-20T12:44:20;96397.69;;;5.43;77.66
69411;BME280;56604;48.652;9.194;2023-12-20T12:46:48;96403.31;;;5.47;77.37
69411;BME280;56604;48.652;9.194;2023-12-20T12:49:16;96398.22;;;5.52;77.97
69411;BME280;56604;48.652;9.194;2023-12-20T12:51:42;96403.16;;;5.35;75.86
69411;BME280;56604;48.652;9.194;2023-12-20T12:54:08;96398.13;;;5.40;77.72
69411;BME280;56604;48.652;9.194;2023-12-20T12:56:34;96406.66;;;5.54;76.66
69411;BME280;56604;48.652;9.194;2023-12-20T12:58:59;96406.59;;;5.60;77.51
69411;BME280;56604;48.652;9.194;2023-12-20T13:01:25;96405.59;;;5.61;76.38
69411;BME280;56604;48.652;9.194;2023-12-20T13:03:50;96404.22;;;5.59;77.42